sensor_id;sensor_type;location;lat;lon;timestamp;P1;durP1;ratioP1;P2;durP2;ratioP2
76765;SDS011;65707;52.362;6.588;2023-06-10T00:01:42;8.00;;;3.38;;
76765;SDS011;65707;52.362;6.588;2023-06-10T00:04:12;8.43;;;3.83;;
76765;SDS011;65707;52.362;6.588;2023-06-10T00:06:38;10.35;;;3.42;;
76765;SDS011;65707;52.362;6.588;2023-06-10T00:09:06;8.68;;;3.53;;
76765;SDS011;65707;52.362;6.588;2023-06-10T00:11:35;13.00;;;3.88;;
76765;SDS011;65707;52.362;6.588;2023-06-10T00:14:02;8.98;;;3.42;;
76765;SDS011;65707;52.362;6.588;2023-06-10T00:16:32;10.48;;;3.60;;
76765;SDS011;65707;52.362;6.588;2023-06-10T00:18:59;11.48;;;3.90;;
76765;SDS011;65707;52.362;6.588;2023-06-10T00:21:27;8.68;;;3.80;;
76765;SDS011;65707;52.362;6.588;2023-06-10T00:23:55;8.70;;;3.60;;
76765;SDS011;65707;52.362;6.588;2023-06-10T00:26:22;10.18;;;4.05;;
76765;SDS011;65707;52.362;6.588;2023-06-10T00:28:49;7.78;;;3.40;;
76765;SDS011;65707;52.362;6.588;2023-06-10T00:31:17;9.15;;;3.33;;
76765;SDS011;65707;52.362;6.588;2023-06-10T00:33:45;13.05;;;3.97;;
76765;SDS011;65707;52.362;6.588;2023-06-10T00:36:12;10.70;;;3.97;;
76765;SDS011;65707;52.362;6.588;2023-06-10T00:38:39;9.40;;;3.38;;
76765;SDS011;65707;52.362;6.588;2023-06-10T00:41:06;11.57;;;4.07;;
76765;SDS011;65707;52.362;6.588;2023-06-10T00:43:33;10.55;;;3.70;;
76765;SDS011;65707;52.362;6.588;2023-06-10T00:46:00;8.45;;;3.50;;
76765;SDS011;65707;52.362;6.588;2023-06-10T00:48:27;9.27;;;3.78;;
76765;SDS011;65707;52.362;6.588;2023-06-10T00:50:56;9.25;;;3.97;;
76765;SDS011;65707;52.362;6.588;2023-06-10T00:53:24;9.63;;;3.65;;
76765;SDS011;65707;52.362;6.588;2023-06-10T00:55:51;7.93;;;3.45;;
76765;SDS011;65707;52.362;6.588;2023-06-10T00:58:18;10.15;;;3.97;;
76765;SDS011;65707;52.362;6.588;2023-06-10T01:00:48;9.15;;;3.55;;
76765;SDS011;65707;52.362;6.588;2023-06-10T01:03:16;11.35;;;4.15;;
76765;SDS011;65707;52.362;6.588;2023-06-10T01:05:43;9.98;;;3.75;;
76765;SDS011;65707;52.362;6.588;2023-06-10T01:08:24;15.13;;;4.10;;
76765;SDS011;65707;52.362;6.588;2023-06-10T01:11:03;10.40;;;3.63;;
76765;SDS011;65707;52.362;6.588;2023-06-10T01:13:40;10.77;;;3.72;;
76765;SDS011;65707;52.362;6.588;2023-06-10T01:16:09;10.35;;;3.97;;
76765;SDS011;65707;52.362;6.588;2023-06-10T01:18:37;9.10;;;4.05;;
76765;SDS011;65707;52.362;6.588;2023-06-10T01:21:07;10.30;;;3.88;;
76765;SDS011;65707;52.362;6.588;2023-06-10T01:23:35;9.18;;;3.80;;
76765;SDS011;65707;52.362;6.588;2023-06-10T01:26:03;7.60;;;3.75;;
76765;SDS011;65707;52.362;6.588;2023-06-10T01:28:38;10.60;;;3.70;;
76765;SDS011;65707;52.362;6.588;2023-06-10T01:31:16;11.63;;;4.00;;
76765;SDS011;65707;52.362;6.588;2023-06-10T01:33:59;10.13;;;4.13;;
76765;SDS011;65707;52.362;6.588;2023-06-10T01:36:28;8.93;;;3.80;;
76765;SDS011;65707;52.362;6.588;2023-06-10T01:38:58;8.45;;;3.80;;
76765;SDS011;65707;52.362;6.588;2023-06-10T01:41:29;12.05;;;3.90;;
76765;SDS011;65707;52.362;6.588;2023-06-10T01:43:58;9.95;;;3.42;;
76765;SDS011;65707;52.362;6.588;2023-06-10T01:46:27;11.23;;;4.10;;
76765;SDS011;65707;52.362;6.588;2023-06-10T01:48:54;8.90;;;3.95;;
76765;SDS011;65707;52.362;6.588;2023-06-10T01:51:21;9.35;;;4.30;;
76765;SDS011;65707;52.362;6.588;2023-06-10T01:53:48;10.00;;;4.10;;
76765;SDS011;65707;52.362;6.588;2023-06-10T01:56:16;11.57;;;3.72;;
76765;SDS011;65707;52.362;6.588;2023-06-10T01:58:44;11.57;;;3.83;;
76765;SDS011;65707;52.362;6.588;2023-06-10T02:01:12;10.32;;;3.70;;
76765;SDS011;65707;52.362;6.588;2023-06-10T02:03:39;8.70;;;4.07;;
76765;SDS011;65707;52.362;6.588;2023-06-10T02:06:06;9.70;;;3.90;;
76765;SDS011;65707;52.362;6.588;2023-06-10T02:08:33;10.50;;;3.97;;
76765;SDS011;65707;52.362;6.588;2023-06-10T02:10:59;9.90;;;4.03;;
76765;SDS011;65707;52.362;6.588;2023-06-10T02:13:30;10.63;;;4.22;;
76765;SDS011;65707;52.362;6.588;2023-06-10T02:15:57;8.68;;;4.35;;
76765;SDS011;65707;52.362;6.588;2023-06-10T02:18:24;9.68;;;4.28;;
76765;SDS011;65707;52.362;6.588;2023-06-10T02:20:52;11.77;;;4.15;;
76765;SDS011;65707;52.362;6.588;2023-06-10T02:23:19;11.13;;;4.25;;
76765;SDS011;65707;52.362;6.588;2023-06-10T02:25:45;10.32;;;3.88;;
76765;SDS011;65707;52.362;6.588;2023-06-10T02:28:13;11.50;;;4.35;;
76765;SDS011;65707;52.362;6.588;2023-06-10T02:30:41;10.18;;;4.22;;
76765;SDS011;65707;52.362;6.588;2023-06-10T02:33:09;9.63;;;4.28;;
76765;SDS011;65707;52.362;6.588;2023-06-10T02:35:36;10.93;;;4.40;;
76765;SDS011;65707;52.362;6.588;2023-06-10T02:38:02;10.73;;;4.35;;
76765;SDS011;65707;52.362;6.588;2023-06-10T02:40:30;11.93;;;3.97;;
76765;SDS011;65707;52.362;6.588;2023-06-10T02:42:57;10.15;;;3.97;;
76765;SDS011;65707;52.362;6.588;2023-06-10T02:45:24;10.50;;;4.15;;
76765;SDS011;65707;52.362;6.588;2023-06-10T02:47:52;10.18;;;4.13;;
76765;SDS011;65707;52.362;6.588;2023-06-10T02:50:19;10.90;;;4.25;;
76765;SDS011;65707;52.362;6.588;2023-06-10T02:52:46;11.45;;;3.97;;
76765;SDS011;65707;52.362;6.588;2023-06-10T02:55:14;11.18;;;3.92;;
76765;SDS011;65707;52.362;6.588;2023-06-10T02:57:41;9.23;;;4.05;;
76765;SDS011;65707;52.362;6.588;2023-06-10T03:00:08;8.50;;;4.03;;
76765;SDS011;65707;52.362;6.588;2023-06-10T03:02:36;10.15;;;3.83;;
76765;SDS011;65707;52.362;6.588;2023-06-10T03:05:05;13.27;;;4.60;;
76765;SDS011;65707;52.362;6.588;2023-06-10T03:07:35;11.05;;;4.68;;
76765;SDS011;65707;52.362;6.588;2023-06-10T03:10:03;9.50;;;3.97;;
76765;SDS011;65707;52.362;6.588;2023-06-10T03:12:31;9.27;;;4.78;;
76765;SDS011;65707;52.362;6.588;2023-06-10T03:14:57;12.63;;;4.43;;
76765;SDS011;65707;52.362;6.588;2023-06-10T03:17:24;9.85;;;4.15;;
76765;SDS011;65707;52.362;6.588;2023-06-10T03:19:51;13.25;;;4.25;;
76765;SDS011;65707;52.362;6.588;2023-06-10T03:22:19;11.18;;;4.22;;
76765;SDS011;65707;52.362;6.588;2023-06-10T03:24:46;10.55;;;4.40;;
76765;SDS011;65707;52.362;6.588;2023-06-10T03:27:15;11.43;;;4.60;;
76765;SDS011;65707;52.362;6.588;2023-06-10T03:29:42;10.50;;;4.43;;
76765;SDS011;65707;52.362;6.588;2023-06-10T03:32:09;12.75;;;4.30;;
76765;SDS011;65707;52.362;6.588;2023-06-10T03:34:36;11.52;;;3.97;;
76765;SDS011;65707;52.362;6.588;2023-06-10T03:37:04;11.93;;;4.38;;
76765;SDS011;65707;52.362;6.588;2023-06-10T03:39:32;9.70;;;4.05;;
76765;SDS011;65707;52.362;6.588;2023-06-10T03:41:59;10.30;;;4.40;;
76765;SDS011;65707;52.362;6.588;2023-06-10T03:44:26;13.52;;;4.40;;
76765;SDS011;65707;52.362;6.588;2023-06-10T03:46:54;12.32;;;4.93;;
76765;SDS011;65707;52.362;6.588;2023-06-10T03:49:21;10.38;;;4.15;;
76765;SDS011;65707;52.362;6.588;2023-06-10T03:51:51;10.25;;;4.72;;
76765;SDS011;65707;52.362;6.588;2023-06-10T03:54:18;10.35;;;4.60;;
76765;SDS011;65707;52.362;6.588;2023-06-10T03:56:47;12.02;;;4.80;;
76765;SDS011;65707;52.362;6.588;2023-06-10T03:59:14;10.93;;;4.82;;
76765;SDS011;65707;52.362;6.588;2023-06-10T04:01:41;11.82;;;4.78;;
76765;SDS011;65707;52.362;6.588;2023-06-10T04:04:08;11.30;;;4.25;;
76765;SDS011;65707;52.362;6.588;2023-06-10T04:06:36;12.77;;;4.30;;
76765;SDS011;65707;52.362;6.588;2023-06-10T04:09:03;13.30;;;4.68;;
76765;SDS011;65707;52.362;6.588;2023-06-10T04:11:30;8.70;;;4.13;;
76765;SDS011;65707;52.362;6.588;2023-06-10T04:13:59;11.70;;;4.25;;
76765;SDS011;65707;52.362;6.588;2023-06-10T04:16:26;10.75;;;3.92;;
76765;SDS011;65707;52.362;6.588;2023-06-10T04:18:53;12.73;;;5.30;;
76765;SDS011;65707;52.362;6.588;2023-06-10T04:21:20;11.77;;;4.30;;
76765;SDS011;65707;52.362;6.588;2023-06-10T04:23:47;9.32;;;4.43;;
76765;SDS011;65707;52.362;6.588;2023-06-10T04:26:14;11.35;;;3.75;;
76765;SDS011;65707;52.362;6.588;2023-06-10T04:28:42;10.60;;;4.13;;
76765;SDS011;65707;52.362;6.588;2023-06-10T04:31:11;10.80;;;4.18;;
76765;SDS011;65707;52.362;6.588;2023-06-10T04:33:38;10.82;;;4.63;;
76765;SDS011;65707;52.362;6.588;2023-06-10T04:36:05;12.85;;;4.07;;
76765;SDS011;65707;52.362;6.588;2023-06-10T04:38:32;11.23;;;4.30;;
76765;SDS011;65707;52.362;6.588;2023-06-10T04:40:59;9.50;;;4.20;;
76765;SDS011;65707;52.362;6.588;2023-06-10T04:43:27;12.05;;;4.07;;
76765;SDS011;65707;52.362;6.588;2023-06-10T04:45:55;10.43;;;4.20;;
76765;SDS011;65707;52.362;6.588;2023-06-10T04:48:24;11.05;;;3.90;;
76765;SDS011;65707;52.362;6.588;2023-06-10T04:50:51;14.52;;;4.60;;
76765;SDS011;65707;52.362;6.588;2023-06-10T04:53:18;11.05;;;3.92;;
76765;SDS011;65707;52.362;6.588;2023-06-10T04:55:45;10.60;;;4.35;;
76765;SDS011;65707;52.362;6.588;2023-06-10T04:58:13;10.50;;;4.00;;
76765;SDS011;65707;52.362;6.588;2023-06-10T05:00:40;14.52;;;4.22;;
76765;SDS011;65707;52.362;6.588;2023-06-10T05:03:08;13.38;;;4.40;;
76765;SDS011;65707;52.362;6.588;2023-06-10T05:05:38;9.80;;;4.22;;
76765;SDS011;65707;52.362;6.588;2023-06-10T05:08:05;10.05;;;3.85;;
76765;SDS011;65707;52.362;6.588;2023-06-10T05:10:32;10.98;;;3.88;;
76765;SDS011;65707;52.362;6.588;2023-06-10T05:12:59;9.38;;;4.13;;
76765;SDS011;65707;52.362;6.588;2023-06-10T05:15:28;9.95;;;3.97;;
76765;SDS011;65707;52.362;6.588;2023-06-10T05:17:56;10.43;;;4.25;;
76765;SDS011;65707;52.362;6.588;2023-06-10T05:20:23;10.88;;;4.05;;
76765;SDS011;65707;52.362;6.588;2023-06-10T05:22:52;9.75;;;3.90;;
76765;SDS011;65707;52.362;6.588;2023-06-10T05:25:18;10.60;;;4.13;;
76765;SDS011;65707;52.362;6.588;2023-06-10T05:27:46;9.55;;;4.25;;
76765;SDS011;65707;52.362;6.588;2023-06-10T05:30:12;10.77;;;4.25;;
76765;SDS011;65707;52.362;6.588;2023-06-10T05:32:45;9.32;;;3.60;;
76765;SDS011;65707;52.362;6.588;2023-06-10T05:35:16;7.88;;;3.85;;
76765;SDS011;65707;52.362;6.588;2023-06-10T05:37:43;8.55;;;3.70;;
76765;SDS011;65707;52.362;6.588;2023-06-10T05:40:11;11.85;;;3.90;;
76765;SDS011;65707;52.362;6.588;2023-06-10T05:42:38;11.77;;;3.95;;
76765;SDS011;65707;52.362;6.588;2023-06-10T05:45:05;9.38;;;3.90;;
76765;SDS011;65707;52.362;6.588;2023-06-10T05:47:34;13.73;;;4.13;;
76765;SDS011;65707;52.362;6.588;2023-06-10T05:50:00;11.23;;;5.05;;
76765;SDS011;65707;52.362;6.588;2023-06-10T05:52:27;11.80;;;4.15;;
76765;SDS011;65707;52.362;6.588;2023-06-10T05:54:54;10.07;;;3.80;;
76765;SDS011;65707;52.362;6.588;2023-06-10T05:57:22;10.57;;;3.88;;
76765;SDS011;65707;52.362;6.588;2023-06-10T05:59:49;10.25;;;3.80;;
76765;SDS011;65707;52.362;6.588;2023-06-10T06:02:16;10.75;;;3.70;;
76765;SDS011;65707;52.362;6.588;2023-06-10T06:04:43;10.20;;;3.95;;
76765;SDS011;65707;52.362;6.588;2023-06-10T06:07:10;9.15;;;3.83;;
76765;SDS011;65707;52.362;6.588;2023-06-10T06:09:36;10.15;;;3.92;;
76765;SDS011;65707;52.362;6.588;2023-06-10T06:12:04;9.57;;;4.07;;
76765;SDS011;65707;52.362;6.588;2023-06-10T06:14:36;8.98;;;3.75;;
76765;SDS011;65707;52.362;6.588;2023-06-10T06:17:05;8.85;;;3.78;;
76765;SDS011;65707;52.362;6.588;2023-06-10T06:19:32;9.57;;;4.20;;
76765;SDS011;65707;52.362;6.588;2023-06-10T06:21:59;9.82;;;4.25;;
76765;SDS011;65707;52.362;6.588;2023-06-10T06:24:26;9.95;;;3.97;;
76765;SDS011;65707;52.362;6.588;2023-06-10T06:26:52;11.70;;;4.50;;
76765;SDS011;65707;52.362;6.588;2023-06-10T06:29:19;9.27;;;3.72;;
76765;SDS011;65707;52.362;6.588;2023-06-10T06:31:47;9.45;;;4.25;;
76765;SDS011;65707;52.362;6.588;2023-06-10T06:34:14;10.98;;;4.28;;
76765;SDS011;65707;52.362;6.588;2023-06-10T06:36:40;8.88;;;3.97;;
76765;SDS011;65707;52.362;6.588;2023-06-10T06:39:07;11.75;;;4.00;;
76765;SDS011;65707;52.362;6.588;2023-06-10T06:41:34;10.18;;;3.63;;
76765;SDS011;65707;52.362;6.588;2023-06-10T06:44:01;9.73;;;3.90;;
76765;SDS011;65707;52.362;6.588;2023-06-10T06:46:28;11.27;;;3.78;;
76765;SDS011;65707;52.362;6.588;2023-06-10T06:48:56;9.57;;;3.60;;
76765;SDS011;65707;52.362;6.588;2023-06-10T06:51:22;11.52;;;3.88;;
76765;SDS011;65707;52.362;6.588;2023-06-10T06:53:49;8.57;;;4.03;;
76765;SDS011;65707;52.362;6.588;2023-06-10T06:56:16;9.63;;;3.70;;
76765;SDS011;65707;52.362;6.588;2023-06-10T06:58:43;9.82;;;3.97;;
76765;SDS011;65707;52.362;6.588;2023-06-10T07:01:10;9.25;;;3.50;;
76765;SDS011;65707;52.362;6.588;2023-06-10T07:03:36;10.15;;;3.85;;
76765;SDS011;65707;52.362;6.588;2023-06-10T07:06:04;12.27;;;3.83;;
76765;SDS011;65707;52.362;6.588;2023-06-10T07:08:31;9.02;;;3.58;;
76765;SDS011;65707;52.362;6.588;2023-06-10T07:10:58;11.85;;;4.53;;
76765;SDS011;65707;52.362;6.588;2023-06-10T07:13:25;10.57;;;3.60;;
76765;SDS011;65707;52.362;6.588;2023-06-10T07:15:51;10.70;;;3.55;;
76765;SDS011;65707;52.362;6.588;2023-06-10T07:18:18;9.40;;;4.00;;
76765;SDS011;65707;52.362;6.588;2023-06-10T07:20:45;10.38;;;3.90;;
76765;SDS011;65707;52.362;6.588;2023-06-10T07:23:13;10.68;;;3.75;;
76765;SDS011;65707;52.362;6.588;2023-06-10T07:25:40;9.48;;;3.40;;
76765;SDS011;65707;52.362;6.588;2023-06-10T07:28:07;9.63;;;3.72;;
76765;SDS011;65707;52.362;6.588;2023-06-10T07:30:34;12.90;;;4.20;;
76765;SDS011;65707;52.362;6.588;2023-06-10T07:33:01;9.05;;;3.85;;
76765;SDS011;65707;52.362;6.588;2023-06-10T07:35:28;10.68;;;3.65;;
76765;SDS011;65707;52.362;6.588;2023-06-10T07:37:55;10.73;;;4.05;;
76765;SDS011;65707;52.362;6.588;2023-06-10T07:40:26;10.02;;;3.90;;
76765;SDS011;65707;52.362;6.588;2023-06-10T07:42:52;9.23;;;3.45;;
76765;SDS011;65707;52.362;6.588;2023-06-10T07:45:21;10.32;;;3.83;;
76765;SDS011;65707;52.362;6.588;2023-06-10T07:47:50;9.95;;;3.85;;
76765;SDS011;65707;52.362;6.588;2023-06-10T07:50:17;10.23;;;3.47;;
76765;SDS011;65707;52.362;6.588;2023-06-10T07:52:44;9.00;;;3.65;;
76765;SDS011;65707;52.362;6.588;2023-06-10T07:55:11;11.57;;;4.05;;
76765;SDS011;65707;52.362;6.588;2023-06-10T07:57:39;11.15;;;4.30;;
76765;SDS011;65707;52.362;6.588;2023-06-10T08:00:06;10.63;;;3.22;;
76765;SDS011;65707;52.362;6.588;2023-06-10T08:02:34;10.73;;;3.60;;
76765;SDS011;65707;52.362;6.588;2023-06-10T08:05:02;10.43;;;3.80;;
76765;SDS011;65707;52.362;6.588;2023-06-10T08:07:33;10.60;;;3.58;;
76765;SDS011;65707;52.362;6.588;2023-06-10T08:10:03;9.23;;;3.65;;
76765;SDS011;65707;52.362;6.588;2023-06-10T08:12:31;7.75;;;3.45;;
76765;SDS011;65707;52.362;6.588;2023-06-10T08:15:00;9.38;;;3.90;;
76765;SDS011;65707;52.362;6.588;2023-06-10T08:17:31;8.15;;;3.28;;
76765;SDS011;65707;52.362;6.588;2023-06-10T08:19:58;8.77;;;3.35;;
76765;SDS011;65707;52.362;6.588;2023-06-10T08:22:24;11.63;;;3.65;;
76765;SDS011;65707;52.362;6.588;2023-06-10T08:24:51;10.52;;;3.90;;
76765;SDS011;65707;52.362;6.588;2023-06-10T08:27:18;10.07;;;3.45;;
76765;SDS011;65707;52.362;6.588;2023-06-10T08:29:45;7.68;;;3.45;;
76765;SDS011;65707;52.362;6.588;2023-06-10T08:32:13;8.43;;;3.65;;
76765;SDS011;65707;52.362;6.588;2023-06-10T08:34:40;8.55;;;3.75;;
76765;SDS011;65707;52.362;6.588;2023-06-10T08:37:06;8.82;;;3.85;;
76765;SDS011;65707;52.362;6.588;2023-06-10T08:39:33;9.63;;;3.47;;
76765;SDS011;65707;52.362;6.588;2023-06-10T08:42:05;9.98;;;3.92;;
76765;SDS011;65707;52.362;6.588;2023-06-10T08:44:43;9.55;;;3.67;;
76765;SDS011;65707;52.362;6.588;2023-06-10T08:47:15;9.82;;;4.10;;
76765;SDS011;65707;52.362;6.588;2023-06-10T08:49:43;10.30;;;4.03;;
76765;SDS011;65707;52.362;6.588;2023-06-10T08:52:14;8.38;;;3.72;;
76765;SDS011;65707;52.362;6.588;2023-06-10T08:54:43;9.80;;;3.85;;
76765;SDS011;65707;52.362;6.588;2023-06-10T08:57:17;11.90;;;4.00;;
76765;SDS011;65707;52.362;6.588;2023-06-10T08:59:46;17.17;;;4.18;;
76765;SDS011;65707;52.362;6.588;2023-06-10T09:02:15;11.23;;;4.10;;
76765;SDS011;65707;52.362;6.588;2023-06-10T09:04:46;14.02;;;4.25;;
76765;SDS011;65707;52.362;6.588;2023-06-10T09:07:14;14.52;;;5.13;;
76765;SDS011;65707;52.362;6.588;2023-06-10T09:09:42;12.07;;;4.18;;
76765;SDS011;65707;52.362;6.588;2023-06-10T09:12:10;10.23;;;3.70;;
76765;SDS011;65707;52.362;6.588;2023-06-10T09:14:39;12.65;;;3.90;;
76765;SDS011;65707;52.362;6.588;2023-06-10T09:17:06;9.15;;;3.90;;
76765;SDS011;65707;52.362;6.588;2023-06-10T09:19:34;11.73;;;3.80;;
76765;SDS011;65707;52.362;6.588;2023-06-10T09:22:02;9.32;;;4.07;;
76765;SDS011;65707;52.362;6.588;2023-06-10T09:24:30;10.82;;;4.43;;
76765;SDS011;65707;52.362;6.588;2023-06-10T09:27:04;7.88;;;3.75;;
76765;SDS011;65707;52.362;6.588;2023-06-10T09:29:35;9.68;;;4.40;;
76765;SDS011;65707;52.362;6.588;2023-06-10T09:32:13;8.90;;;3.80;;
76765;SDS011;65707;52.362;6.588;2023-06-10T09:34:41;10.07;;;4.28;;
76765;SDS011;65707;52.362;6.588;2023-06-10T09:37:07;11.52;;;3.65;;
76765;SDS011;65707;52.362;6.588;2023-06-10T09:39:37;7.90;;;3.70;;
76765;SDS011;65707;52.362;6.588;2023-06-10T09:42:05;11.35;;;4.00;;
76765;SDS011;65707;52.362;6.588;2023-06-10T09:44:46;13.27;;;4.40;;
76765;SDS011;65707;52.362;6.588;2023-06-10T09:47:19;12.77;;;4.30;;
76765;SDS011;65707;52.362;6.588;2023-06-10T09:49:48;9.68;;;3.97;;
76765;SDS011;65707;52.362;6.588;2023-06-10T09:52:21;10.32;;;3.90;;
76765;SDS011;65707;52.362;6.588;2023-06-10T09:54:49;8.25;;;3.80;;
76765;SDS011;65707;52.362;6.588;2023-06-10T09:57:20;9.00;;;4.10;;
76765;SDS011;65707;52.362;6.588;2023-06-10T09:59:47;9.10;;;3.70;;
76765;SDS011;65707;52.362;6.588;2023-06-10T10:02:19;8.75;;;4.13;;
76765;SDS011;65707;52.362;6.588;2023-06-10T10:04:47;9.98;;;3.45;;
76765;SDS011;65707;52.362;6.588;2023-06-10T10:07:15;10.68;;;4.07;;
76765;SDS011;65707;52.362;6.588;2023-06-10T10:09:45;9.70;;;3.85;;
76765;SDS011;65707;52.362;6.588;2023-06-10T10:12:13;9.00;;;3.70;;
76765;SDS011;65707;52.362;6.588;2023-06-10T10:14:43;9.68;;;4.20;;
76765;SDS011;65707;52.362;6.588;2023-06-10T10:17:14;8.43;;;4.05;;
76765;SDS011;65707;52.362;6.588;2023-06-10T10:19:43;10.10;;;4.70;;
76765;SDS011;65707;52.362;6.588;2023-06-10T10:22:19;8.77;;;4.07;;
76765;SDS011;65707;52.362;6.588;2023-06-10T10:24:52;8.90;;;4.25;;
76765;SDS011;65707;52.362;6.588;2023-06-10T10:27:25;9.32;;;4.07;;
76765;SDS011;65707;52.362;6.588;2023-06-10T10:30:01;8.48;;;4.38;;
76765;SDS011;65707;52.362;6.588;2023-06-10T10:32:38;9.15;;;4.20;;
76765;SDS011;65707;52.362;6.588;2023-06-10T10:35:19;9.38;;;3.85;;
76765;SDS011;65707;52.362;6.588;2023-06-10T10:37:49;10.18;;;4.03;;
76765;SDS011;65707;52.362;6.588;2023-06-10T10:40:18;9.68;;;4.03;;
76765;SDS011;65707;52.362;6.588;2023-06-10T10:42:45;11.45;;;4.28;;
76765;SDS011;65707;52.362;6.588;2023-06-10T10:45:14;7.97;;;4.45;;
76765;SDS011;65707;52.362;6.588;2023-06-10T10:47:41;8.63;;;3.53;;
76765;SDS011;65707;52.362;6.588;2023-06-10T10:50:14;11.25;;;3.90;;
76765;SDS011;65707;52.362;6.588;2023-06-10T10:52:53;12.60;;;3.85;;
76765;SDS011;65707;52.362;6.588;2023-06-10T10:55:21;8.25;;;4.07;;
76765;SDS011;65707;52.362;6.588;2023-06-10T10:57:54;10.40;;;4.18;;
76765;SDS011;65707;52.362;6.588;2023-06-10T11:00:26;8.55;;;4.00;;
76765;SDS011;65707;52.362;6.588;2023-06-10T11:02:54;10.32;;;4.53;;
76765;SDS011;65707;52.362;6.588;2023-06-10T11:05:30;8.63;;;4.20;;
76765;SDS011;65707;52.362;6.588;2023-06-10T11:07:59;10.80;;;4.20;;
76765;SDS011;65707;52.362;6.588;2023-06-10T11:10:31;8.02;;;3.90;;
76765;SDS011;65707;52.362;6.588;2023-06-10T11:12:58;8.10;;;3.83;;
76765;SDS011;65707;52.362;6.588;2023-06-10T11:15:31;9.43;;;4.40;;
76765;SDS011;65707;52.362;6.588;2023-06-10T11:20:53;10.15;;;4.30;;
76765;SDS011;65707;52.362;6.588;2023-06-10T11:23:26;8.43;;;3.95;;
76765;SDS011;65707;52.362;6.588;2023-06-10T11:26:14;8.75;;;4.05;;
76765;SDS011;65707;52.362;6.588;2023-06-10T11:29:04;7.47;;;3.67;;
76765;SDS011;65707;52.362;6.588;2023-06-10T11:31:33;8.02;;;3.92;;
76765;SDS011;65707;52.362;6.588;2023-06-10T11:34:05;7.57;;;3.80;;
76765;SDS011;65707;52.362;6.588;2023-06-10T11:36:33;6.82;;;3.85;;
76765;SDS011;65707;52.362;6.588;2023-06-10T11:39:11;6.97;;;3.80;;
76765;SDS011;65707;52.362;6.588;2023-06-10T11:41:39;9.88;;;3.60;;
76765;SDS011;65707;52.362;6.588;2023-06-10T11:44:09;8.27;;;4.18;;
76765;SDS011;65707;52.362;6.588;2023-06-10T11:46:37;7.28;;;3.72;;
76765;SDS011;65707;52.362;6.588;2023-06-10T11:49:04;10.68;;;4.10;;
76765;SDS011;65707;52.362;6.588;2023-06-10T11:51:32;7.05;;;3.88;;
76765;SDS011;65707;52.362;6.588;2023-06-10T11:54:00;6.65;;;3.45;;
76765;SDS011;65707;52.362;6.588;2023-06-10T11:56:30;8.07;;;3.92;;
76765;SDS011;65707;52.362;6.588;2023-06-10T11:58:58;8.63;;;3.35;;
76765;SDS011;65707;52.362;6.588;2023-06-10T12:01:29;6.95;;;3.35;;
76765;SDS011;65707;52.362;6.588;2023-06-10T12:03:57;7.20;;;3.50;;
76765;SDS011;65707;52.362;6.588;2023-06-10T12:06:25;7.47;;;3.65;;
76765;SDS011;65707;52.362;6.588;2023-06-10T12:08:53;8.02;;;3.30;;
76765;SDS011;65707;52.362;6.588;2023-06-10T12:13:48;8.02;;;3.33;;
76765;SDS011;65707;52.362;6.588;2023-06-10T12:16:15;6.82;;;3.08;;
76765;SDS011;65707;52.362;6.588;2023-06-10T12:18:43;6.30;;;3.05;;
76765;SDS011;65707;52.362;6.588;2023-06-10T12:21:17;7.00;;;3.90;;
76765;SDS011;65707;52.362;6.588;2023-06-10T12:24:02;8.27;;;3.50;;
76765;SDS011;65707;52.362;6.588;2023-06-10T12:26:34;8.50;;;3.85;;
76765;SDS011;65707;52.362;6.588;2023-06-10T12:29:03;6.82;;;3.45;;
76765;SDS011;65707;52.362;6.588;2023-06-10T12:31:52;8.00;;;3.40;;
76765;SDS011;65707;52.362;6.588;2023-06-10T12:34:19;7.20;;;3.45;;
76765;SDS011;65707;52.362;6.588;2023-06-10T12:36:47;10.55;;;3.60;;
76765;SDS011;65707;52.362;6.588;2023-06-10T12:39:14;6.40;;;3.30;;
76765;SDS011;65707;52.362;6.588;2023-06-10T12:41:46;8.02;;;3.35;;
76765;SDS011;65707;52.362;6.588;2023-06-10T12:44:14;7.53;;;3.55;;
76765;SDS011;65707;52.362;6.588;2023-06-10T12:49:08;6.40;;;3.08;;
76765;SDS011;65707;52.362;6.588;2023-06-10T12:51:34;7.22;;;4.00;;
76765;SDS011;65707;52.362;6.588;2023-06-10T12:54:02;9.23;;;3.40;;
76765;SDS011;65707;52.362;6.588;2023-06-10T12:56:28;7.85;;;3.70;;
76765;SDS011;65707;52.362;6.588;2023-06-10T12:58:55;6.93;;;3.70;;
76765;SDS011;65707;52.362;6.588;2023-06-10T13:01:23;10.32;;;4.10;;
76765;SDS011;65707;52.362;6.588;2023-06-10T13:03:50;10.00;;;3.75;;
76765;SDS011;65707;52.362;6.588;2023-06-10T13:06:16;8.15;;;3.50;;
76765;SDS011;65707;52.362;6.588;2023-06-10T13:08:45;8.45;;;4.30;;
76765;SDS011;65707;52.362;6.588;2023-06-10T13:11:17;9.43;;;4.35;;
76765;SDS011;65707;52.362;6.588;2023-06-10T13:13:48;7.00;;;3.70;;
76765;SDS011;65707;52.362;6.588;2023-06-10T13:28:16;10.00;;;5.35;;
76765;SDS011;65707;52.362;6.588;2023-06-10T13:30:42;7.13;;;3.85;;
76765;SDS011;65707;52.362;6.588;2023-06-10T13:33:09;9.25;;;5.72;;
76765;SDS011;65707;52.362;6.588;2023-06-10T13:35:36;8.27;;;5.45;;
76765;SDS011;65707;52.362;6.588;2023-06-10T13:38:02;8.32;;;5.20;;
76765;SDS011;65707;52.362;6.588;2023-06-10T13:40:29;8.38;;;4.82;;
76765;SDS011;65707;52.362;6.588;2023-06-10T13:42:55;11.60;;;5.22;;
76765;SDS011;65707;52.362;6.588;2023-06-10T13:45:23;13.85;;;4.13;;
76765;SDS011;65707;52.362;6.588;2023-06-10T13:47:49;7.50;;;5.45;;
76765;SDS011;65707;52.362;6.588;2023-06-10T13:50:16;9.10;;;5.30;;
76765;SDS011;65707;52.362;6.588;2023-06-10T13:52:45;9.68;;;5.53;;
76765;SDS011;65707;52.362;6.588;2023-06-10T13:55:12;9.80;;;5.65;;
76765;SDS011;65707;52.362;6.588;2023-06-10T13:57:38;8.45;;;5.75;;
76765;SDS011;65707;52.362;6.588;2023-06-10T14:00:05;8.77;;;4.63;;
76765;SDS011;65707;52.362;6.588;2023-06-10T14:02:34;8.77;;;3.85;;
76765;SDS011;65707;52.362;6.588;2023-06-10T14:07:27;9.10;;;5.45;;
76765;SDS011;65707;52.362;6.588;2023-06-10T14:09:54;9.63;;;5.63;;
76765;SDS011;65707;52.362;6.588;2023-06-10T14:12:21;11.13;;;5.05;;
76765;SDS011;65707;52.362;6.588;2023-06-10T14:14:47;10.48;;;5.25;;
76765;SDS011;65707;52.362;6.588;2023-06-10T14:17:14;8.98;;;4.85;;
76765;SDS011;65707;52.362;6.588;2023-06-10T14:19:41;7.40;;;4.97;;
76765;SDS011;65707;52.362;6.588;2023-06-10T14:22:08;11.20;;;5.00;;
76765;SDS011;65707;52.362;6.588;2023-06-10T14:24:35;8.18;;;5.57;;
76765;SDS011;65707;52.362;6.588;2023-06-10T14:27:02;9.02;;;5.25;;
76765;SDS011;65707;52.362;6.588;2023-06-10T14:29:29;10.82;;;5.45;;
76765;SDS011;65707;52.362;6.588;2023-06-10T14:31:56;8.45;;;6.00;;
76765;SDS011;65707;52.362;6.588;2023-06-10T14:34:23;7.93;;;5.38;;
76765;SDS011;65707;52.362;6.588;2023-06-10T14:36:54;9.02;;;5.15;;
76765;SDS011;65707;52.362;6.588;2023-06-10T14:39:21;7.55;;;5.32;;
76765;SDS011;65707;52.362;6.588;2023-06-10T14:41:48;7.93;;;5.15;;
76765;SDS011;65707;52.362;6.588;2023-06-10T14:44:14;8.18;;;4.70;;
76765;SDS011;65707;52.362;6.588;2023-06-10T14:46:41;8.88;;;4.93;;
76765;SDS011;65707;52.362;6.588;2023-06-10T14:49:07;9.57;;;5.07;;
76765;SDS011;65707;52.362;6.588;2023-06-10T14:51:34;8.60;;;5.47;;
76765;SDS011;65707;52.362;6.588;2023-06-10T14:54:02;8.25;;;5.65;;
76765;SDS011;65707;52.362;6.588;2023-06-10T14:56:29;9.75;;;5.45;;
76765;SDS011;65707;52.362;6.588;2023-06-10T14:58:55;7.72;;;5.22;;
76765;SDS011;65707;52.362;6.588;2023-06-10T15:01:22;9.40;;;5.53;;
76765;SDS011;65707;52.362;6.588;2023-06-10T15:03:48;9.10;;;5.30;;
76765;SDS011;65707;52.362;6.588;2023-06-10T15:06:15;7.50;;;4.30;;
76765;SDS011;65707;52.362;6.588;2023-06-10T15:08:45;7.63;;;4.72;;
76765;SDS011;65707;52.362;6.588;2023-06-10T15:11:14;9.57;;;5.13;;